sensor_id;sensor_type;location;lat;lon;timestamp;P1;durP1;ratioP1;P2;durP2;ratioP2
30850;SDS011;17567;48.382;9.102;2023-07-29T00:02:29;5.27;;;1.37;;
30850;SDS011;17567;48.382;9.102;2023-07-29T00:07:32;3.57;;;1.30;;
30850;SDS011;17567;48.382;9.102;2023-07-29T00:12:33;5.13;;;1.40;;
30850;SDS011;17567;48.382;9.102;2023-07-29T00:17:34;8.43;;;1.17;;
30850;SDS011;17567;48.382;9.102;2023-07-29T00:22:35;5.13;;;1.10;;
30850;SDS011;17567;48.382;9.102;2023-07-29T00:27:36;3.10;;;1.43;;
30850;SDS011;17567;48.382;9.102;2023-07-29T00:32:37;3.77;;;1.30;;
30850;SDS011;17567;48.382;9.102;2023-07-29T00:37:38;2.47;;;1.27;;
30850;SDS011;17567;48.382;9.102;2023-07-29T00:42:39;2.30;;;1.30;;
30850;SDS011;17567;48.382;9.102;2023-07-29T00:47:42;3.77;;;1.50;;
30850;SDS011;17567;48.382;9.102;2023-07-29T00:52:43;1.60;;;1.50;;
30850;SDS011;17567;48.382;9.102;2023-07-29T00:57:44;1.80;;;1.40;;
30850;SDS011;17567;48.382;9.102;2023-07-29T01:02:48;2.40;;;1.73;;
30850;SDS011;17567;48.382;9.102;2023-07-29T01:07:56;3.67;;;1.43;;
30850;SDS011;17567;48.382;9.102;2023-07-29T01:18:05;3.80;;;1.73;;
30850;SDS011;17567;48.382;9.102;2023-07-29T01:23:07;1.60;;;1.50;;
30850;SDS011;17567;48.382;9.102;2023-07-29T01:28:07;4.23;;;1.40;;
30850;SDS011;17567;48.382;9.102;2023-07-29T01:33:20;2.07;;;0.93;;
30850;SDS011;17567;48.382;9.102;2023-07-29T01:38:56;2.20;;;1.20;;
30850;SDS011;17567;48.382;9.102;2023-07-29T01:43:50;3.37;;;1.50;;
30850;SDS011;17567;48.382;9.102;2023-07-29T01:48:51;3.00;;;1.50;;
30850;SDS011;17567;48.382;9.102;2023-07-29T01:53:52;3.00;;;1.60;;
30850;SDS011;17567;48.382;9.102;2023-07-29T01:58:55;1.80;;;1.70;;
30850;SDS011;17567;48.382;9.102;2023-07-29T02:03:56;3.40;;;1.37;;
30850;SDS011;17567;48.382;9.102;2023-07-29T02:08:57;1.73;;;1.63;;
30850;SDS011;17567;48.382;9.102;2023-07-29T02:13:58;2.40;;;1.50;;
30850;SDS011;17567;48.382;9.102;2023-07-29T02:18:59;9.20;;;1.60;;
30850;SDS011;17567;48.382;9.102;2023-07-29T02:24:00;4.73;;;1.33;;
30850;SDS011;17567;48.382;9.102;2023-07-29T02:29:01;6.37;;;1.90;;
30850;SDS011;17567;48.382;9.102;2023-07-29T02:34:03;3.83;;;1.60;;
30850;SDS011;17567;48.382;9.102;2023-07-29T02:39:05;2.93;;;1.60;;
30850;SDS011;17567;48.382;9.102;2023-07-29T02:44:06;3.07;;;1.70;;
30850;SDS011;17567;48.382;9.102;2023-07-29T02:49:06;1.73;;;1.50;;
30850;SDS011;17567;48.382;9.102;2023-07-29T02:54:07;2.53;;;2.00;;
30850;SDS011;17567;48.382;9.102;2023-07-29T02:59:08;2.23;;;2.03;;
30850;SDS011;17567;48.382;9.102;2023-07-29T03:04:08;2.13;;;1.93;;
30850;SDS011;17567;48.382;9.102;2023-07-29T03:09:09;1.63;;;1.50;;
30850;SDS011;17567;48.382;9.102;2023-07-29T03:14:09;3.93;;;1.77;;
30850;SDS011;17567;48.382;9.102;2023-07-29T03:19:11;1.97;;;1.83;;
30850;SDS011;17567;48.382;9.102;2023-07-29T03:24:12;3.20;;;1.83;;
30850;SDS011;17567;48.382;9.102;2023-07-29T03:29:13;1.93;;;1.70;;
30850;SDS011;17567;48.382;9.102;2023-07-29T03:34:15;8.10;;;3.57;;
30850;SDS011;17567;48.382;9.102;2023-07-29T03:39:15;2.00;;;1.70;;
30850;SDS011;17567;48.382;9.102;2023-07-29T03:44:18;2.07;;;1.77;;
30850;SDS011;17567;48.382;9.102;2023-07-29T03:49:21;3.80;;;2.30;;
30850;SDS011;17567;48.382;9.102;2023-07-29T03:54:21;1.83;;;1.47;;
30850;SDS011;17567;48.382;9.102;2023-07-29T03:59:24;3.60;;;1.67;;
30850;SDS011;17567;48.382;9.102;2023-07-29T04:04:25;1.87;;;1.60;;
30850;SDS011;17567;48.382;9.102;2023-07-29T04:09:28;2.83;;;1.50;;
30850;SDS011;17567;48.382;9.102;2023-07-29T04:14:29;1.70;;;1.60;;
30850;SDS011;17567;48.382;9.102;2023-07-29T04:19:30;1.50;;;1.40;;
30850;SDS011;17567;48.382;9.102;2023-07-29T04:24:30;1.73;;;1.63;;
30850;SDS011;17567;48.382;9.102;2023-07-29T04:29:31;1.53;;;1.40;;
30850;SDS011;17567;48.382;9.102;2023-07-29T04:34:31;2.20;;;2.00;;
30850;SDS011;17567;48.382;9.102;2023-07-29T04:39:32;1.93;;;1.70;;
30850;SDS011;17567;48.382;9.102;2023-07-29T04:44:33;3.10;;;1.77;;
30850;SDS011;17567;48.382;9.102;2023-07-29T04:49:34;2.40;;;1.80;;
30850;SDS011;17567;48.382;9.102;2023-07-29T04:54:35;5.43;;;2.10;;
30850;SDS011;17567;48.382;9.102;2023-07-29T04:59:35;2.37;;;2.17;;
30850;SDS011;17567;48.382;9.102;2023-07-29T05:04:37;2.17;;;1.97;;
30850;SDS011;17567;48.382;9.102;2023-07-29T05:09:37;2.37;;;2.07;;
30850;SDS011;17567;48.382;9.102;2023-07-29T05:14:38;3.10;;;1.73;;
30850;SDS011;17567;48.382;9.102;2023-07-29T05:19:38;2.83;;;2.30;;
30850;SDS011;17567;48.382;9.102;2023-07-29T05:24:39;3.97;;;2.00;;
30850;SDS011;17567;48.382;9.102;2023-07-29T05:29:40;2.90;;;1.97;;
30850;SDS011;17567;48.382;9.102;2023-07-29T05:34:41;3.80;;;1.70;;
30850;SDS011;17567;48.382;9.102;2023-07-29T05:39:42;2.90;;;1.90;;
30850;SDS011;17567;48.382;9.102;2023-07-29T05:44:43;2.30;;;1.67;;
30850;SDS011;17567;48.382;9.102;2023-07-29T05:49:44;3.10;;;1.90;;
30850;SDS011;17567;48.382;9.102;2023-07-29T07:05:36;1.60;;;1.50;;
30850;SDS011;17567;48.382;9.102;2023-07-29T07:10:37;1.57;;;1.47;;
30850;SDS011;17567;48.382;9.102;2023-07-29T07:15:38;2.77;;;1.40;;
30850;SDS011;17567;48.382;9.102;2023-07-29T07:20:39;1.20;;;1.10;;
30850;SDS011;17567;48.382;9.102;2023-07-29T07:25:39;1.60;;;1.50;;
30850;SDS011;17567;48.382;9.102;2023-07-29T07:30:40;1.43;;;1.33;;
30850;SDS011;17567;48.382;9.102;2023-07-29T07:35:41;4.30;;;1.80;;
30850;SDS011;17567;48.382;9.102;2023-07-29T07:40:43;1.83;;;1.30;;
30850;SDS011;17567;48.382;9.102;2023-07-29T07:45:58;1.90;;;1.80;;
30850;SDS011;17567;48.382;9.102;2023-07-29T07:51:09;2.47;;;2.00;;
30850;SDS011;17567;48.382;9.102;2023-07-29T07:56:13;2.90;;;1.70;;
30850;SDS011;17567;48.382;9.102;2023-07-29T08:01:15;1.73;;;1.50;;
30850;SDS011;17567;48.382;9.102;2023-07-29T08:06:15;1.70;;;1.60;;
30850;SDS011;17567;48.382;9.102;2023-07-29T08:11:16;3.90;;;2.60;;
30850;SDS011;17567;48.382;9.102;2023-07-29T08:16:16;1.80;;;1.70;;
30850;SDS011;17567;48.382;9.102;2023-07-29T08:21:17;2.30;;;1.80;;
30850;SDS011;17567;48.382;9.102;2023-07-29T08:26:18;3.03;;;2.33;;
30850;SDS011;17567;48.382;9.102;2023-07-29T08:31:19;2.90;;;2.37;;
30850;SDS011;17567;48.382;9.102;2023-07-29T08:36:20;6.03;;;2.90;;
30850;SDS011;17567;48.382;9.102;2023-07-29T08:41:37;2.53;;;1.87;;
30850;SDS011;17567;48.382;9.102;2023-07-29T08:46:45;2.30;;;2.10;;
30850;SDS011;17567;48.382;9.102;2023-07-29T08:51:46;2.00;;;1.90;;
30850;SDS011;17567;48.382;9.102;2023-07-29T08:56:51;2.10;;;1.90;;
30850;SDS011;17567;48.382;9.102;2023-07-29T09:01:52;2.50;;;2.00;;
30850;SDS011;17567;48.382;9.102;2023-07-29T09:06:56;3.00;;;2.03;;
30850;SDS011;17567;48.382;9.102;2023-07-29T09:11:59;2.27;;;2.07;;
30850;SDS011;17567;48.382;9.102;2023-07-29T09:16:59;2.57;;;2.37;;
30850;SDS011;17567;48.382;9.102;2023-07-29T09:22:00;2.83;;;2.00;;
30850;SDS011;17567;48.382;9.102;2023-07-29T09:27:01;2.13;;;2.03;;
30850;SDS011;17567;48.382;9.102;2023-07-29T09:32:17;2.17;;;1.97;;
30850;SDS011;17567;48.382;9.102;2023-07-29T09:37:22;2.63;;;2.30;;
30850;SDS011;17567;48.382;9.102;2023-07-29T09:42:23;2.27;;;2.07;;
30850;SDS011;17567;48.382;9.102;2023-07-29T09:47:25;4.53;;;2.80;;
30850;SDS011;17567;48.382;9.102;2023-07-29T09:52:26;3.27;;;2.17;;
30850;SDS011;17567;48.382;9.102;2023-07-29T09:57:26;3.70;;;2.10;;
30850;SDS011;17567;48.382;9.102;2023-07-29T10:02:27;2.17;;;1.97;;
30850;SDS011;17567;48.382;9.102;2023-07-29T10:07:29;2.40;;;2.20;;
30850;SDS011;17567;48.382;9.102;2023-07-29T10:12:30;2.50;;;2.30;;
30850;SDS011;17567;48.382;9.102;2023-07-29T10:17:33;2.40;;;2.20;;
30850;SDS011;17567;48.382;9.102;2023-07-29T10:22:42;3.77;;;2.30;;
30850;SDS011;17567;48.382;9.102;2023-07-29T10:32:44;3.03;;;2.57;;
30850;SDS011;17567;48.382;9.102;2023-07-29T10:37:45;2.90;;;2.60;;
30850;SDS011;17567;48.382;9.102;2023-07-29T10:53:37;2.67;;;2.40;;
30850;SDS011;17567;48.382;9.102;2023-07-29T10:58:37;2.87;;;2.50;;
30850;SDS011;17567;48.382;9.102;2023-07-29T11:03:38;3.30;;;2.13;;
30850;SDS011;17567;48.382;9.102;2023-07-29T11:08:39;2.57;;;2.37;;
30850;SDS011;17567;48.382;9.102;2023-07-29T11:13:40;4.80;;;2.53;;
30850;SDS011;17567;48.382;9.102;2023-07-29T11:18:41;2.60;;;2.40;;
30850;SDS011;17567;48.382;9.102;2023-07-29T11:23:44;5.73;;;2.73;;
30850;SDS011;17567;48.382;9.102;2023-07-29T11:28:45;4.40;;;2.50;;
30850;SDS011;17567;48.382;9.102;2023-07-29T11:33:46;5.07;;;2.30;;
30850;SDS011;17567;48.382;9.102;2023-07-29T11:38:47;2.70;;;2.50;;
30850;SDS011;17567;48.382;9.102;2023-07-29T11:43:47;2.73;;;2.50;;
30850;SDS011;17567;48.382;9.102;2023-07-29T11:48:48;2.10;;;1.90;;
30850;SDS011;17567;48.382;9.102;2023-07-29T11:53:48;2.47;;;2.20;;
30850;SDS011;17567;48.382;9.102;2023-07-29T11:58:49;1.90;;;1.70;;
30850;SDS011;17567;48.382;9.102;2023-07-29T12:03:50;2.40;;;2.20;;
30850;SDS011;17567;48.382;9.102;2023-07-29T12:08:51;3.83;;;2.20;;
30850;SDS011;17567;48.382;9.102;2023-07-29T12:13:53;2.00;;;1.70;;
30850;SDS011;17567;48.382;9.102;2023-07-29T12:18:54;1.87;;;1.77;;
30850;SDS011;17567;48.382;9.102;2023-07-29T12:23:54;1.97;;;1.87;;
30850;SDS011;17567;48.382;9.102;2023-07-29T12:28:55;2.13;;;1.93;;
30850;SDS011;17567;48.382;9.102;2023-07-29T12:33:59;2.00;;;1.70;;
30850;SDS011;17567;48.382;9.102;2023-07-29T12:38:59;4.33;;;2.13;;
30850;SDS011;17567;48.382;9.102;2023-07-29T12:44:00;2.60;;;2.40;;
30850;SDS011;17567;48.382;9.102;2023-07-29T12:49:00;3.90;;;2.43;;
30850;SDS011;17567;48.382;9.102;2023-07-29T12:54:01;4.20;;;2.77;;
30850;SDS011;17567;48.382;9.102;2023-07-29T12:59:05;2.97;;;2.60;;
30850;SDS011;17567;48.382;9.102;2023-07-29T13:04:06;4.20;;;2.00;;
30850;SDS011;17567;48.382;9.102;2023-07-29T13:09:06;2.72;;;2.40;;
30850;SDS011;17567;48.382;9.102;2023-07-29T13:14:07;3.27;;;2.73;;
30850;SDS011;17567;48.382;9.102;2023-07-29T13:19:08;3.53;;;2.70;;
30850;SDS011;17567;48.382;9.102;2023-07-29T13:24:09;3.20;;;2.40;;
30850;SDS011;17567;48.382;9.102;2023-07-29T13:29:09;2.83;;;2.63;;
30850;SDS011;17567;48.382;9.102;2023-07-29T13:34:10;3.37;;;2.53;;
30850;SDS011;17567;48.382;9.102;2023-07-29T13:39:10;3.13;;;2.37;;
30850;SDS011;17567;48.382;9.102;2023-07-29T13:44:11;2.00;;;1.90;;
30850;SDS011;17567;48.382;9.102;2023-07-29T13:49:14;2.90;;;2.30;;
30850;SDS011;17567;48.382;9.102;2023-07-29T13:54:14;2.73;;;2.30;;
30850;SDS011;17567;48.382;9.102;2023-07-29T13:59:15;1.90;;;1.80;;
30850;SDS011;17567;48.382;9.102;2023-07-29T14:04:15;2.50;;;2.30;;
30850;SDS011;17567;48.382;9.102;2023-07-29T14:09:16;2.10;;;1.90;;
30850;SDS011;17567;48.382;9.102;2023-07-29T14:14:17;3.13;;;2.50;;
30850;SDS011;17567;48.382;9.102;2023-07-29T14:19:17;4.33;;;2.30;;
30850;SDS011;17567;48.382;9.102;2023-07-29T14:24:18;5.83;;;2.40;;
30850;SDS011;17567;48.382;9.102;2023-07-29T14:29:19;4.10;;;2.13;;
30850;SDS011;17567;48.382;9.102;2023-07-29T14:34:20;2.33;;;2.13;;
30850;SDS011;17567;48.382;9.102;2023-07-29T14:39:21;2.53;;;2.00;;
30850;SDS011;17567;48.382;9.102;2023-07-29T14:44:22;2.00;;;1.90;;
30850;SDS011;17567;48.382;9.102;2023-07-29T14:49:23;3.60;;;1.95;;
30850;SDS011;17567;48.382;9.102;2023-07-29T14:54:23;2.65;;;2.30;;
30850;SDS011;17567;48.382;9.102;2023-07-29T14:59:24;2.13;;;1.90;;
30850;SDS011;17567;48.382;9.102;2023-07-29T15:04:25;2.40;;;2.20;;
30850;SDS011;17567;48.382;9.102;2023-07-29T15:09:25;2.47;;;2.13;;
30850;SDS011;17567;48.382;9.102;2023-07-29T15:14:29;3.67;;;2.72;;
30850;SDS011;17567;48.382;9.102;2023-07-29T15:19:29;2.40;;;2.20;;
30850;SDS011;17567;48.382;9.102;2023-07-29T15:24:30;2.63;;;2.23;;
30850;SDS011;17567;48.382;9.102;2023-07-29T15:29:31;1.87;;;1.77;;
30850;SDS011;17567;48.382;9.102;2023-07-29T15:34:32;2.10;;;1.70;;
30850;SDS011;17567;48.382;9.102;2023-07-29T15:39:33;2.20;;;2.00;;
30850;SDS011;17567;48.382;9.102;2023-07-29T15:44:34;2.00;;;1.80;;
30850;SDS011;17567;48.382;9.102;2023-07-29T15:49:37;2.53;;;1.90;;
30850;SDS011;17567;48.382;9.102;2023-07-29T15:54:37;1.80;;;1.70;;
30850;SDS011;17567;48.382;9.102;2023-07-29T15:59:38;1.70;;;1.60;;
30850;SDS011;17567;48.382;9.102;2023-07-29T16:04:38;2.20;;;2.10;;
30850;SDS011;17567;48.382;9.102;2023-07-29T16:09:39;3.33;;;1.70;;
30850;SDS011;17567;48.382;9.102;2023-07-29T16:14:40;3.00;;;2.20;;
30850;SDS011;17567;48.382;9.102;2023-07-29T16:19:56;3.57;;;1.87;;
30850;SDS011;17567;48.382;9.102;2023-07-29T16:24:58;2.03;;;1.83;;
30850;SDS011;17567;48.382;9.102;2023-07-29T16:30:01;3.00;;;2.23;;
30850;SDS011;17567;48.382;9.102;2023-07-29T16:35:02;2.13;;;1.97;;
30850;SDS011;17567;48.382;9.102;2023-07-29T16:40:03;1.77;;;1.67;;
30850;SDS011;17567;48.382;9.102;2023-07-29T16:45:06;3.20;;;1.67;;
30850;SDS011;17567;48.382;9.102;2023-07-29T16:50:08;1.93;;;1.83;;
30850;SDS011;17567;48.382;9.102;2023-07-29T16:55:08;1.97;;;1.77;;
30850;SDS011;17567;48.382;9.102;2023-07-29T17:00:09;1.93;;;1.83;;
30850;SDS011;17567;48.382;9.102;2023-07-29T17:05:10;2.13;;;1.93;;
30850;SDS011;17567;48.382;9.102;2023-07-29T17:10:11;2.37;;;2.17;;
30850;SDS011;17567;48.382;9.102;2023-07-29T17:15:12;2.27;;;2.03;;
30850;SDS011;17567;48.382;9.102;2023-07-29T17:20:13;2.43;;;2.10;;
30850;SDS011;17567;48.382;9.102;2023-07-29T17:25:14;2.70;;;2.50;;
30850;SDS011;17567;48.382;9.102;2023-07-29T17:30:15;3.57;;;2.10;;
30850;SDS011;17567;48.382;9.102;2023-07-29T17:35:15;3.90;;;1.90;;
30850;SDS011;17567;48.382;9.102;2023-07-29T17:40:17;2.20;;;2.00;;
30850;SDS011;17567;48.382;9.102;2023-07-29T17:45:18;2.40;;;2.20;;
30850;SDS011;17567;48.382;9.102;2023-07-29T17:50:19;2.47;;;2.27;;
30850;SDS011;17567;48.382;9.102;2023-07-29T17:55:19;2.97;;;2.70;;
30850;SDS011;17567;48.382;9.102;2023-07-29T18:00:20;2.57;;;2.37;;
30850;SDS011;17567;48.382;9.102;2023-07-29T18:05:21;2.57;;;2.37;;
30850;SDS011;17567;48.382;9.102;2023-07-29T18:10:21;2.90;;;2.53;;
30850;SDS011;17567;48.382;9.102;2023-07-29T18:15:24;6.47;;;3.77;;
30850;SDS011;17567;48.382;9.102;2023-07-29T18:20:24;3.50;;;2.77;;
30850;SDS011;17567;48.382;9.102;2023-07-29T18:25:25;4.30;;;2.50;;
30850;SDS011;17567;48.382;9.102;2023-07-29T18:30:25;3.23;;;2.83;;
30850;SDS011;17567;48.382;9.102;2023-07-29T18:35:26;3.50;;;2.97;;
30850;SDS011;17567;48.382;9.102;2023-07-29T18:40:27;3.13;;;2.83;;
30850;SDS011;17567;48.382;9.102;2023-07-29T18:45:28;4.40;;;3.47;;
30850;SDS011;17567;48.382;9.102;2023-07-29T18:50:29;3.23;;;2.93;;
30850;SDS011;17567;48.382;9.102;2023-07-29T18:55:30;2.80;;;2.60;;
30850;SDS011;17567;48.382;9.102;2023-07-29T19:00:34;3.83;;;2.47;;
30850;SDS011;17567;48.382;9.102;2023-07-29T19:05:35;1.90;;;1.80;;
30850;SDS011;17567;48.382;9.102;2023-07-29T19:10:35;2.40;;;2.07;;
30850;SDS011;17567;48.382;9.102;2023-07-29T19:15:36;2.63;;;2.40;;
30850;SDS011;17567;48.382;9.102;2023-07-29T19:20:38;2.43;;;2.20;;
30850;SDS011;17567;48.382;9.102;2023-07-29T19:25:46;2.73;;;2.50;;
30850;SDS011;17567;48.382;9.102;2023-07-29T19:30:47;3.07;;;2.77;;
30850;SDS011;17567;48.382;9.102;2023-07-29T19:35:54;4.17;;;2.87;;
30850;SDS011;17567;48.382;9.102;2023-07-29T19:40:58;2.70;;;2.50;;
30850;SDS011;17567;48.382;9.102;2023-07-29T19:46:00;2.33;;;2.13;;
30850;SDS011;17567;48.382;9.102;2023-07-29T19:51:03;4.53;;;2.27;;
30850;SDS011;17567;48.382;9.102;2023-07-29T19:56:04;2.60;;;2.40;;
30850;SDS011;17567;48.382;9.102;2023-07-29T20:01:04;2.40;;;2.20;;
30850;SDS011;17567;48.382;9.102;2023-07-29T20:06:05;2.47;;;2.27;;
30850;SDS011;17567;48.382;9.102;2023-07-29T20:11:06;2.43;;;2.23;;
30850;SDS011;17567;48.382;9.102;2023-07-29T20:16:08;3.10;;;2.47;;
30850;SDS011;17567;48.382;9.102;2023-07-29T20:21:11;2.87;;;2.57;;
30850;SDS011;17567;48.382;9.102;2023-07-29T20:26:13;2.90;;;2.70;;
30850;SDS011;17567;48.382;9.102;2023-07-29T20:31:17;2.47;;;2.27;;
30850;SDS011;17567;48.382;9.102;2023-07-29T20:36:18;4.23;;;2.90;;
30850;SDS011;17567;48.382;9.102;2023-07-29T20:41:19;2.50;;;2.30;;
30850;SDS011;17567;48.382;9.102;2023-07-29T20:46:23;2.57;;;2.37;;
30850;SDS011;17567;48.382;9.102;2023-07-29T20:51:27;3.37;;;3.07;;
30850;SDS011;17567;48.382;9.102;2023-07-29T20:56:28;3.67;;;3.20;;
30850;SDS011;17567;48.382;9.102;2023-07-29T21:01:31;3.30;;;3.00;;
30850;SDS011;17567;48.382;9.102;2023-07-29T21:06:32;3.30;;;3.10;;
30850;SDS011;17567;48.382;9.102;2023-07-29T21:11:33;4.47;;;3.70;;
30850;SDS011;17567;48.382;9.102;2023-07-29T21:16:36;8.80;;;3.20;;
30850;SDS011;17567;48.382;9.102;2023-07-29T21:21:37;3.30;;;2.90;;
30850;SDS011;17567;48.382;9.102;2023-07-29T21:26:38;5.07;;;3.03;;
30850;SDS011;17567;48.382;9.102;2023-07-29T21:31:39;3.90;;;3.47;;
30850;SDS011;17567;48.382;9.102;2023-07-29T21:36:40;6.20;;;3.30;;
30850;SDS011;17567;48.382;9.102;2023-07-29T21:41:41;3.70;;;3.40;;
30850;SDS011;17567;48.382;9.102;2023-07-29T21:46:42;4.03;;;3.27;;
30850;SDS011;17567;48.382;9.102;2023-07-29T21:51:43;3.63;;;3.33;;
30850;SDS011;17567;48.382;9.102;2023-07-29T21:56:44;3.80;;;3.50;;
30850;SDS011;17567;48.382;9.102;2023-07-29T22:01:45;3.40;;;3.10;;
30850;SDS011;17567;48.382;9.102;2023-07-29T22:06:46;3.10;;;2.80;;
30850;SDS011;17567;48.382;9.102;2023-07-29T22:11:47;3.20;;;3.00;;
30850;SDS011;17567;48.382;9.102;2023-07-29T22:16:48;3.47;;;3.17;;
30850;SDS011;17567;48.382;9.102;2023-07-29T22:21:50;6.87;;;3.10;;
30850;SDS011;17567;48.382;9.102;2023-07-29T22:26:51;3.30;;;3.00;;
30850;SDS011;17567;48.382;9.102;2023-07-29T22:31:55;3.20;;;2.90;;
30850;SDS011;17567;48.382;9.102;2023-07-29T22:36:56;6.90;;;3.00;;
30850;SDS011;17567;48.382;9.102;2023-07-29T22:41:57;2.57;;;2.37;;
30850;SDS011;17567;48.382;9.102;2023-07-29T22:46:58;2.97;;;2.77;;
30850;SDS011;17567;48.382;9.102;2023-07-29T22:52:00;3.87;;;2.77;;
30850;SDS011;17567;48.382;9.102;2023-07-29T22:57:01;2.80;;;2.60;;
30850;SDS011;17567;48.382;9.102;2023-07-29T23:02:02;3.20;;;2.90;;
30850;SDS011;17567;48.382;9.102;2023-07-29T23:07:03;3.53;;;2.93;;
30850;SDS011;17567;48.382;9.102;2023-07-29T23:12:05;3.57;;;2.53;;
30850;SDS011;17567;48.382;9.102;2023-07-29T23:17:06;2.73;;;2.53;;
30850;SDS011;17567;48.382;9.102;2023-07-29T23:22:07;3.30;;;3.00;;
30850;SDS011;17567;48.382;9.102;2023-07-29T23:27:08;2.57;;;2.27;;
30850;SDS011;17567;48.382;9.102;2023-07-29T23:32:09;3.43;;;2.43;;
30850;SDS011;17567;48.382;9.102;2023-07-29T23:37:10;3.43;;;2.30;;
30850;SDS011;17567;48.382;9.102;2023-07-29T23:42:11;2.20;;;1.90;;
30850;SDS011;17567;48.382;9.102;2023-07-29T23:47:12;2.33;;;2.10;;
30850;SDS011;17567;48.382;9.102;2023-07-29T23:52:12;3.80;;;2.23;;
30850;SDS011;17567;48.382;9.102;2023-07-29T23:57:13;2.43;;;2.23;;
